Flight Track Log - Related Links

Times and Time Zones

All times are in EDT time to prevent confusion due to time zone crossing. See the EJA131 flight status page for this flight to view local times or setup timezone preferences in your user account.

Time Position Orientation Groundspeed Altitude Reporting Facility
EDT Latitude Longitude Course Direction KTS MPH feet Rate Location/Type
Sat 04:41:42 PM 25.8003 -80.2722 82° East 194 223 800  Level Miami Center
Sat 04:42:37 PM 25.8081 -80.2078 82° East 263 303 3,700 3,032 Climbing Miami Center
Sat 04:43:15 PM 25.8256 -80.1669 65° Northeast 262 302 5,500 2,020 Climbing Miami Center
Sat 04:44:15 PM 25.8969 -80.1619 North 234 269 7,000 800 Climbing Miami Center
Sat 04:45:15 PM 25.9689 -80.2053 332° Northwest 205 236 7,100 750 Climbing Miami Center
Sat 04:46:15 PM 26.0089 -80.2850 299° West 229 264 8,500 1,850 Climbing Miami Center
Sat 04:47:15 PM 26.0486 -80.3694 298° West 272 313 10,800 2,550 Climbing Miami Center
Sat 04:48:15 PM 26.0942 -80.4703 297° West 318 366 13,600 2,550 Climbing Miami Center
Sat 04:49:15 PM 26.1339 -80.5594 296° West 329 379 15,900 1,200 Climbing Miami Center
Sat 04:50:15 PM 26.1772 -80.6556 297° West 334 384 16,000 50 Climbing Miami Center
Sat 04:51:15 PM 26.2228 -80.7544 297° West 345 397 16,000 50 Level Miami Center
Sat 04:52:15 PM 26.2853 -80.8397 309° West 351 404 16,100 100 Climbing Miami Center
Sat 04:54:00 PM 26.3934 -80.9460 319° Northwest  Level Estimated
Sat 05:01:00 PM 26.8251 -81.3729 319° Northwest  Level Estimated
Sat 05:02:00 PM 26.8867 -81.4342 318° Northwest  Level Estimated
Sat 05:03:00 PM 26.9482 -81.4955 318° Northwest  Level Estimated
Sat 05:04:00 PM 27.0098 -81.5569 318° Northwest  Level Estimated
Sat 05:05:00 PM 27.0713 -81.6184 318° Northwest  Level Estimated
Sat 05:06:00 PM 27.1327 -81.6799 318° Northwest  Level Estimated
Sat 05:07:00 PM 27.1942 -81.7415 318° Northwest  Level Estimated
Sat 05:08:00 PM 27.2556 -81.8032 318° Northwest  Level Estimated
Sat 05:09:00 PM 27.3170 -81.8649 318° Northwest  Level Estimated
Sat 05:10:00 PM 27.3783 -81.9267 318° Northwest  Level Estimated
Sat 05:11:00 PM 27.4396 -81.9886 318° Northwest  Level Estimated
Sat 05:12:00 PM 27.5009 -82.0505 318° Northwest  Level Estimated
Sat 05:13:00 PM 27.5622 -82.1125 318° Northwest  Level Estimated
Sat 05:14:00 PM 27.6235 -82.1746 318° Northwest  Level Estimated
Sat 05:15:00 PM 27.6847 -82.2367 318° Northwest  Level Estimated
Sat 05:16:00 PM 27.7459 -82.2990 318° Northwest  Level Estimated
Sat 05:17:00 PM 27.8071 -82.3612 318° Northwest  Level Estimated
Sat 05:18:00 PM 27.8682 -82.4236 318° Northwest  Level Estimated
Sat 05:19:00 PM 27.9293 -82.4860 318° Northwest  Level Estimated
Sat 05:20:00 PM 27.9755 -82.5332 318° Northwest  Level Estimated
Sat 05:21:00 PM 27.9755 -82.5332 North  Level Estimated
Sat 05:22:00 PM 27.9755 -82.5332 North  Level Estimated
Sat 05:23:00 PM 27.9755 -82.5332 North  Level Estimated
Sat 05:24:00 PM 27.9755 -82.5332 North  Level Estimated
Sat 05:25:00 PM 27.9755 -82.5332 North  Level Estimated
Sat 05:26:00 PM 27.9755 -82.5332 North  Level Estimated
Sat 05:27:00 PM 27.9755 -82.5332 North  Level Estimated
Sat 05:28:00 PM 27.9755 -82.5332 North  Level Estimated
Sat 05:29:00 PM 27.9755 -82.5332 North  Level Estimated
Sat 05:30:00 PM 27.9755 -82.5332 North  Level Estimated
Sat 05:31:00 PM 27.9755 -82.5332 North  Level Estimated
Sat 05:32:00 PM 27.9755 -82.5332 North  Level Estimated
Sat 05:33:00 PM 27.9755 -82.5332 North  Level Estimated

Login

Don't have an account? Register now (free) for customized features, flight alerts, and more!